메인 페이지
METAR-TAF:

METAR-TAF

공항 :

차트라파티 시바지 국제공항

뭄바이, 인도

위도: 19-07N, 경도: 072-51E, 고도: 8m

현재 날씨관측

예보는 37분 전, 10:00시(UTC)에 발표되었습니다.
서북서10kt
온도 34°C
습도 36%
기압 1009 hPa
시정: 5000m
연기

METAR: VABB 161000Z 30010KT 5000 FU NSC 34/17 Q1009 NOSIG

시각: 16:07 (10:37 UTC)

예보

예보는 2 시간 37분 전, 08:00시(UTC)에 발표되었습니다.
예보 대상 시간: 16일 09시부터 16일 18시까지 (UTC)
10kt
시정: 4000m
연기
전환 중
16일 13시부터 16일 15시까지 (UTC)
북북서8kt
시정: 3000m
연기

TAF: VABB 160800Z 1609/1618 28010KT 4000 FU NSC BECMG 1613/1615 34008KT 3000 FU

4,000개 이상의 공항 관측 자료 및 예보 (METAR 및 TAF 보고).

지도상에서 검색 가능한 기상관측소가 노란 점과 빨간 점으로 표시되어 있습니다.

기상관측소 명을 보려면 표시 위로 마우스를 이동하세요.

날씨 관측과 예보를 보려면 클릭하세요.

지도 변경 : 확대하려면 엑스 표시가 있는 녹색 버튼, 축소하려면 빼기 표시가 있는 녹색 버튼, 다음 페이지의 지도를 보려면 녹색 화살표를 클릭하세요.


METAR-TAF: